Time;durP1;ratioP1;P1;durP2;ratioP2;P2;SDS_P1;SDS_P2;PMS_P1;PMS_P2;Temp;Humidity;BMP_temperature;BMP_pressure;BME280_temperature;BME280_humidity;BME280_pressure;Samples;Min_cycle;Max_cycle;Signal;HPM_P1;HPM_P2
2022/08/15 00:00:26;;;;;;;;;;;18.60;76.40;;;;;;4923745;29;19937;-87
2022/08/15 00:02:53;;;;;;;;;;;18.60;76.60;;;;;;4907797;29;19978;-87
2022/08/15 00:05:29;;;;;;;;;;;18.60;76.50;;;;;;4929855;29;19930;-88
2022/08/15 00:07:58;;;;;;;;;;;18.50;76.70;;;;;;4918929;29;19927;-88
2022/08/15 00:10:26;;;;;;;;;;;18.50;76.60;;;;;;4917089;29;20390;-84
2022/08/15 00:13:21;;;;;;;;;;;18.60;76.40;;;;;;4913999;29;19971;-85
2022/08/15 00:15:49;;;;;;;;;;;18.60;75.70;;;;;;4923739;29;19933;-87
2022/08/15 00:18:17;;;;;;;;;;;18.60;75.30;;;;;;4919944;29;19930;-88
2022/08/15 00:20:47;;;;;;;;;;;18.60;74.90;;;;;;4941999;29;19931;-88
2022/08/15 00:23:18;;;;;;;;;;;18.60;74.50;;;;;;4912842;29;20131;-88
2022/08/15 00:25:51;;;;;;;;;;;18.60;74.60;;;;;;4916735;29;19935;-88
2022/08/15 00:28:24;;;;;;;;;;;18.60;74.70;;;;;;4916857;29;19934;-87
2022/08/15 00:31:08;;;;;;;;;;;18.60;75.00;;;;;;4915893;29;19931;-88
2022/08/15 00:33:38;;;;;;;;;;;18.60;75.30;;;;;;4916785;29;20395;-87
2022/08/15 00:36:06;;;;;;;;;;;18.50;75.20;;;;;;4905424;29;19951;-87
2022/08/15 00:38:53;;;;;;;;;;;18.50;75.30;;;;;;4910487;29;19961;-88
2022/08/15 00:44:08;;;;;;;;;;;18.40;75.60;;;;;;4936029;29;19950;-86
2022/08/15 00:46:36;;;;;;;;;;;18.40;75.90;;;;;;4915649;29;19970;-88
2022/08/15 00:49:04;;;;;;;;;;;18.40;76.00;;;;;;4910946;29;19973;-85
2022/08/15 00:51:41;;;;;;;;;;;18.30;76.40;;;;;;4927835;29;19950;-88
2022/08/15 00:54:29;;;;;;;;;;;18.30;76.60;;;;;;4924413;29;19934;-88
2022/08/15 00:57:20;;;;;;;;;;;18.30;77.00;;;;;;4923472;29;20027;-88
2022/08/15 01:00:13;;;;;;;;;;;18.30;77.30;;;;;;4942284;29;19937;-88
2022/08/15 01:03:02;;;;;;;;;;;18.20;77.20;;;;;;4924633;29;20387;-87
2022/08/15 01:05:29;;;;;;;;;;;18.10;77.20;;;;;;4913560;29;20411;-87
2022/08/15 01:07:56;;;;;;;;;;;18.00;77.30;;;;;;4918143;29;19994;-89
2022/08/15 01:10:24;;;;;;;;;;;18.00;77.50;;;;;;4918830;29;19927;-88
2022/08/15 01:12:52;;;;;;;;;;;17.90;77.70;;;;;;4917593;29;20018;-89
2022/08/15 01:15:20;;;;;;;;;;;17.90;77.80;;;;;;4914817;29;19931;-88
2022/08/15 01:17:54;;;;;;;;;;;17.90;77.90;;;;;;4925939;29;19973;-88
2022/08/15 01:20:24;;;;;;;;;;;17.90;78.00;;;;;;4916678;29;19951;-88
2022/08/15 01:23:01;;;;;;;;;;;17.90;78.00;;;;;;4937416;29;19927;-87
2022/08/15 01:25:33;;;;;;;;;;;17.80;78.00;;;;;;4924287;29;19927;-88
2022/08/15 01:28:24;;;;;;;;;;;17.80;78.10;;;;;;4913411;29;20370;-85
2022/08/15 01:31:00;;;;;;;;;;;17.80;78.40;;;;;;4935205;29;19937;-87
2022/08/15 01:33:31;;;;;;;;;;;17.70;78.40;;;;;;4909602;29;20446;-88
2022/08/15 01:35:59;;;;;;;;;;;17.80;78.90;;;;;;4918233;29;19953;-87
2022/08/15 01:38:32;;;;;;;;;;;17.70;79.20;;;;;;4916153;29;19927;-88
2022/08/15 01:41:19;;;;;;;;;;;17.70;79.20;;;;;;4932116;29;19997;-87
2022/08/15 01:43:57;;;;;;;;;;;17.60;79.10;;;;;;4925342;29;19926;-87
2022/08/15 01:46:50;;;;;;;;;;;17.60;79.10;;;;;;4915554;29;19926;-87
2022/08/15 01:49:22;;;;;;;;;;;17.50;79.20;;;;;;4917037;29;20017;-87
2022/08/15 01:51:51;;;;;;;;;;;17.50;79.60;;;;;;4914671;29;20340;-89
2022/08/15 01:54:20;;;;;;;;;;;17.50;79.60;;;;;;4933153;29;19927;-89
2022/08/15 01:57:08;;;;;;;;;;;17.50;79.60;;;;;;4929168;29;19927;-87
2022/08/15 01:59:36;;;;;;;;;;;17.50;79.70;;;;;;4919163;29;20017;-89
2022/08/15 02:02:05;;;;;;;;;;;17.40;79.80;;;;;;4916520;29;19986;-87
2022/08/15 02:04:52;;;;;;;;;;;17.40;79.90;;;;;;4918387;29;20013;-87
2022/08/15 02:07:22;;;;;;;;;;;17.40;79.80;;;;;;4936526;29;19938;-87
2022/08/15 02:09:50;;;;;;;;;;;17.30;79.80;;;;;;4930530;29;20292;-87
2022/08/15 02:12:20;;;;;;;;;;;17.30;80.00;;;;;;4944081;29;20455;-88
2022/08/15 02:15:12;;;;;;;;;;;17.30;80.10;;;;;;4927810;29;20013;-87
2022/08/15 02:17:40;;;;;;;;;;;17.30;80.40;;;;;;4923545;29;19973;-87
2022/08/15 02:20:07;;;;;;;;;;;17.40;80.20;;;;;;4910251;29;19927;-87
2022/08/15 02:22:50;;;;;;;;;;;17.50;79.60;;;;;;4936793;29;20015;-87
2022/08/15 02:25:17;;;;;;;;;;;17.60;78.70;;;;;;4912169;29;19930;-85
2022/08/15 02:27:49;;;;;;;;;;;17.70;77.80;;;;;;4909945;29;19927;-88
2022/08/15 02:30:18;;;;;;;;;;;17.80;77.10;;;;;;4923117;29;19926;-84
2022/08/15 02:32:47;;;;;;;;;;;18.00;76.40;;;;;;4925625;29;19926;-85
2022/08/15 02:35:16;;;;;;;;;;;18.10;75.80;;;;;;4918661;29;19934;-87
2022/08/15 02:37:44;;;;;;;;;;;18.20;75.10;;;;;;4918983;29;19927;-87
2022/08/15 02:40:25;;;;;;;;;;;18.30;74.40;;;;;;4947531;29;19927;-87
2022/08/15 02:43:12;;;;;;;;;;;18.50;73.50;;;;;;4923783;29;20001;-88
2022/08/15 02:45:47;;;;;;;;;;;18.60;72.40;;;;;;4928483;29;19926;-85
2022/08/15 02:48:34;;;;;;;;;;;18.80;71.80;;;;;;4932561;29;19930;-88
2022/08/15 02:51:05;;;;;;;;;;;18.90;71.00;;;;;;4922439;29;19927;-88
2022/08/15 02:53:36;;;;;;;;;;;19.00;70.70;;;;;;4925429;29;19937;-88
2022/08/15 02:56:14;;;;;;;;;;;19.00;70.10;;;;;;4913923;29;19975;-87
2022/08/15 02:58:42;;;;;;;;;;;19.00;69.90;;;;;;4933880;29;19933;-85
2022/08/15 03:01:09;;;;;;;;;;;19.00;70.10;;;;;;4918884;29;19983;-88
2022/08/15 03:03:42;;;;;;;;;;;18.90;70.40;;;;;;4952498;29;19930;-87
2022/08/15 03:06:10;;;;;;;;;;;18.80;70.70;;;;;;4945737;29;20383;-85
2022/08/15 03:09:00;;;;;;;;;;;18.80;71.00;;;;;;4928755;29;20406;-87
2022/08/15 03:11:27;;;;;;;;;;;18.80;71.00;;;;;;4918001;29;19931;-87
2022/08/15 03:14:16;;;;;;;;;;;18.80;70.80;;;;;;4924853;28;19932;-88
2022/08/15 03:17:00;;;;;;;;;;;18.80;70.40;;;;;;4915347;29;20422;-85
2022/08/15 03:19:27;;;;;;;;;;;18.80;70.10;;;;;;4918820;29;20068;-88
2022/08/15 03:21:55;;;;;;;;;;;18.90;69.90;;;;;;4937693;29;19962;-88
2022/08/15 03:24:22;;;;;;;;;;;18.80;69.80;;;;;;4926520;29;20374;-85
2022/08/15 03:26:50;;;;;;;;;;;18.80;70.20;;;;;;4925823;29;19969;-88
2022/08/15 03:29:20;;;;;;;;;;;18.80;70.20;;;;;;4927865;29;19935;-88
2022/08/15 03:31:49;;;;;;;;;;;18.80;70.10;;;;;;4930958;29;19931;-88
2022/08/15 03:34:17;;;;;;;;;;;18.80;69.80;;;;;;4928973;29;19935;-87
2022/08/15 03:36:54;;;;;;;;;;;18.80;69.50;;;;;;4920988;29;19985;-88
2022/08/15 03:39:24;;;;;;;;;;;18.90;69.40;;;;;;4936898;29;29895;-88
2022/08/15 03:41:52;;;;;;;;;;;18.90;69.30;;;;;;4934111;29;20358;-88
2022/08/15 03:44:23;;;;;;;;;;;18.90;69.40;;;;;;4946602;29;19973;-85
2022/08/15 03:46:54;;;;;;;;;;;18.90;69.80;;;;;;4923884;29;19931;-89
2022/08/15 03:49:22;;;;;;;;;;;18.80;69.80;;;;;;4921874;29;19941;-88
2022/08/15 03:52:08;;;;;;;;;;;18.80;69.70;;;;;;4939551;29;20017;-85
2022/08/15 03:54:36;;;;;;;;;;;18.80;69.60;;;;;;4927120;29;20388;-89
2022/08/15 03:57:06;;;;;;;;;;;18.80;69.70;;;;;;4921037;29;19927;-88
2022/08/15 03:59:34;;;;;;;;;;;18.80;69.70;;;;;;4924738;29;20022;-85
2022/08/15 04:02:06;;;;;;;;;;;18.80;69.40;;;;;;4922875;29;19942;-84
2022/08/15 04:04:53;;;;;;;;;;;18.80;69.20;;;;;;4925349;29;19927;-88
2022/08/15 04:07:25;;;;;;;;;;;18.90;69.00;;;;;;4909911;29;19969;-88
2022/08/15 04:10:09;;;;;;;;;;;18.80;69.10;;;;;;4914885;29;19926;-85
2022/08/15 04:12:57;;;;;;;;;;;18.90;69.00;;;;;;4914461;29;19948;-89
2022/08/15 04:15:27;;;;;;;;;;;18.90;68.90;;;;;;4925451;29;20326;-87
2022/08/15 04:17:57;;;;;;;;;;;18.90;68.50;;;;;;4915886;29;19931;-88
2022/08/15 04:20:28;;;;;;;;;;;19.00;68.30;;;;;;4923160;29;20384;-85
2022/08/15 04:22:58;;;;;;;;;;;19.00;68.20;;;;;;4921073;29;19930;-88
2022/08/15 04:25:29;;;;;;;;;;;19.00;68.10;;;;;;4921295;29;19931;-88
2022/08/15 04:28:17;;;;;;;;;;;19.00;68.60;;;;;;4918654;29;19927;-85
2022/08/15 04:30:55;;;;;;;;;;;19.00;68.50;;;;;;4919838;29;20013;-88
2022/08/15 04:33:27;;;;;;;;;;;19.00;68.60;;;;;;4918928;29;19951;-88
2022/08/15 04:36:15;;;;;;;;;;;18.90;68.50;;;;;;4914102;29;19966;-88
2022/08/15 04:38:45;;;;;;;;;;;18.90;68.40;;;;;;4931410;29;19927;-85
2022/08/15 04:41:15;;;;;;;;;;;18.90;68.30;;;;;;4914076;29;19979;-88
2022/08/15 04:44:06;;;;;;;;;;;18.90;68.60;;;;;;4917204;29;19993;-88
2022/08/15 04:46:44;;;;;;;;;;;18.90;69.00;;;;;;4929456;29;19933;-88
2022/08/15 04:49:12;;;;;;;;;;;18.80;69.10;;;;;;4918536;29;19931;-85
2022/08/15 04:51:43;;;;;;;;;;;18.80;68.90;;;;;;4932532;29;19927;-88
2022/08/15 04:54:10;;;;;;;;;;;18.80;68.80;;;;;;4917371;29;19935;-88
2022/08/15 04:56:40;;;;;;;;;;;18.90;68.50;;;;;;4914635;29;19931;-87
2022/08/15 04:59:18;;;;;;;;;;;18.90;68.30;;;;;;4917936;29;19927;-88
2022/08/15 05:02:06;;;;;;;;;;;19.00;67.90;;;;;;4920641;29;19933;-87
2022/08/15 05:04:52;;;;;;;;;;;19.00;68.50;;;;;;4924604;29;19927;-88
2022/08/15 05:07:19;;;;;;;;;;;18.90;68.50;;;;;;4916123;29;19978;-87
2022/08/15 05:09:57;;;;;;;;;;;19.00;68.60;;;;;;4921112;29;20392;-88
2022/08/15 05:12:37;;;;;;;;;;;19.00;69.20;;;;;;4931349;29;19930;-88
2022/08/15 05:15:08;;;;;;;;;;;19.10;67.60;;;;;;4919172;29;19927;-88
2022/08/15 05:17:37;;;;;;;;;;;19.20;67.20;;;;;;4924406;29;19927;-88
2022/08/15 05:20:22;;;;;;;;;;;19.20;66.80;;;;;;4916088;29;19934;-89
2022/08/15 05:22:54;;;;;;;;;;;19.30;66.50;;;;;;4920384;29;20403;-88
2022/08/15 05:25:21;;;;;;;;;;;19.40;66.30;;;;;;4913432;29;19966;-87
2022/08/15 05:27:52;;;;;;;;;;;19.50;66.60;;;;;;4907203;29;20423;-85
2022/08/15 05:30:21;;;;;;;;;;;19.40;66.10;;;;;;4918973;29;20013;-85
2022/08/15 05:32:48;;;;;;;;;;;19.50;66.00;;;;;;4916280;29;20638;-85
2022/08/15 05:35:15;;;;;;;;;;;19.50;65.90;;;;;;4923620;29;19933;-88
2022/08/15 05:37:44;;;;;;;;;;;19.60;65.90;;;;;;4911581;29;19962;-85
2022/08/15 05:40:11;;;;;;;;;;;19.60;65.70;;;;;;4939715;29;19931;-88
2022/08/15 05:42:58;;;;;;;;;;;19.70;65.80;;;;;;4913571;29;19934;-88
2022/08/15 05:45:33;;;;;;;;;;;19.70;65.50;;;;;;4922979;29;19930;-88
2022/08/15 05:48:27;;;;;;;;;;;19.70;65.50;;;;;;4917346;29;19926;-87
2022/08/15 05:51:08;;;;;;;;;;;19.80;65.10;;;;;;4939565;29;19927;-87
2022/08/15 05:53:58;;;;;;;;;;;19.90;64.80;;;;;;4940326;29;19934;-88
2022/08/15 05:56:35;;;;;;;;;;;19.90;64.50;;;;;;4921833;29;20307;-85
2022/08/15 05:59:05;;;;;;;;;;;20.00;64.60;;;;;;4923224;29;19927;-85
2022/08/15 06:01:37;;;;;;;;;;;20.10;64.00;;;;;;4916789;29;19931;-85
2022/08/15 06:04:06;;;;;;;;;;;20.10;63.70;;;;;;4919730;29;19927;-88
2022/08/15 06:06:36;;;;;;;;;;;20.20;63.40;;;;;;4919402;29;19938;-88
2022/08/15 06:09:14;;;;;;;;;;;20.20;63.40;;;;;;4923121;29;19926;-88
2022/08/15 06:11:46;;;;;;;;;;;20.30;62.90;;;;;;4912544;29;20017;-85
2022/08/15 06:14:33;;;;;;;;;;;20.40;62.90;;;;;;4941801;29;19930;-88
2022/08/15 06:17:13;;;;;;;;;;;20.40;62.80;;;;;;4919700;29;20019;-86
2022/08/15 06:19:43;;;;;;;;;;;20.40;62.70;;;;;;4938689;29;19926;-89
2022/08/15 06:22:19;;;;;;;;;;;20.50;61.90;;;;;;4925036;29;19927;-85
2022/08/15 06:24:51;;;;;;;;;;;20.60;62.10;;;;;;4930056;29;19927;-88
2022/08/15 06:27:27;;;;;;;;;;;20.60;62.10;;;;;;4930816;29;20327;-88
2022/08/15 06:30:19;;;;;;;;;;;20.60;62.00;;;;;;4927066;29;19930;-89
2022/08/15 06:33:09;;;;;;;;;;;20.70;61.50;;;;;;4917811;29;19930;-88
2022/08/15 06:35:48;;;;;;;;;;;20.80;61.50;;;;;;4923333;29;19937;-87
2022/08/15 06:38:34;;;;;;;;;;;20.90;60.60;;;;;;4922651;29;19931;-89
2022/08/15 06:41:18;;;;;;;;;;;21.00;60.90;;;;;;4925347;29;20391;-90
2022/08/15 06:43:50;;;;;;;;;;;21.10;60.40;;;;;;4923812;29;19937;-88
2022/08/15 06:46:27;;;;;;;;;;;21.10;60.00;;;;;;4917075;29;19931;-86
2022/08/15 06:49:16;;;;;;;;;;;21.20;60.00;;;;;;4921427;29;19966;-89
2022/08/15 06:51:43;;;;;;;;;;;21.30;59.80;;;;;;4923974;29;19954;-86
2022/08/15 06:54:14;;;;;;;;;;;21.40;59.90;;;;;;4935674;29;19926;-87
2022/08/15 06:57:16;;;;;;;;;;;21.50;59.40;;;;;;4923049;29;20022;-89
2022/08/15 06:59:59;;;;;;;;;;;21.60;58.80;;;;;;4926856;29;19930;-88
2022/08/15 07:02:52;;;;;;;;;;;21.70;58.50;;;;;;4923281;29;19935;-86
2022/08/15 07:05:41;;;;;;;;;;;21.80;58.50;;;;;;4935545;29;19934;-88
2022/08/15 07:08:26;;;;;;;;;;;21.90;58.40;;;;;;4932306;29;19938;-89
2022/08/15 07:10:58;;;;;;;;;;;22.00;59.10;;;;;;4923184;29;20280;-85
2022/08/15 07:13:28;;;;;;;;;;;22.10;58.90;;;;;;4918833;29;19953;-87
2022/08/15 07:16:28;;;;;;;;;;;22.20;57.60;;;;;;4919590;29;20026;-88
2022/08/15 07:18:57;;;;;;;;;;;22.40;58.10;;;;;;4920188;29;19939;-89
2022/08/15 07:21:25;;;;;;;;;;;22.50;57.70;;;;;;4922067;29;19927;-88
2022/08/15 07:24:17;;;;;;;;;;;22.60;56.80;;;;;;4921602;29;20344;-86
2022/08/15 07:27:04;;;;;;;;;;;22.80;56.60;;;;;;4920530;29;19937;-86
2022/08/15 07:29:35;;;;;;;;;;;23.00;56.70;;;;;;4928543;29;19966;-88
2022/08/15 07:32:09;;;;;;;;;;;23.10;55.90;;;;;;4924631;29;20030;-89
2022/08/15 07:35:14;;;;;;;;;;;23.20;55.30;;;;;;4915280;29;19954;-90
2022/08/15 07:37:49;;;;;;;;;;;23.40;55.50;;;;;;4917201;29;20340;-89
2022/08/15 07:40:18;;;;;;;;;;;23.60;52.80;;;;;;4922256;29;19931;-89
2022/08/15 07:42:55;;;;;;;;;;;23.80;52.90;;;;;;4938193;29;20045;-89
2022/08/15 07:45:38;;;;;;;;;;;23.90;53.80;;;;;;4931433;29;19970;-90
2022/08/15 07:48:20;;;;;;;;;;;24.00;52.70;;;;;;4918362;29;20297;-87
2022/08/15 07:51:09;;;;;;;;;;;24.00;52.80;;;;;;4917464;29;20011;-89
2022/08/15 07:53:49;;;;;;;;;;;24.20;52.40;;;;;;4937976;29;19926;-89
2022/08/15 07:56:22;;;;;;;;;;;24.40;52.10;;;;;;4925011;29;19931;-86
2022/08/15 07:59:08;;;;;;;;;;;24.50;52.70;;;;;;4917168;29;19935;-86
2022/08/15 08:01:36;;;;;;;;;;;24.70;52.10;;;;;;4937261;29;19931;-89
2022/08/15 08:04:17;;;;;;;;;;;24.90;51.70;;;;;;4930271;29;19927;-89
2022/08/15 08:06:53;;;;;;;;;;;25.10;51.30;;;;;;4919664;29;19930;-89
2022/08/15 08:09:39;;;;;;;;;;;25.30;51.20;;;;;;4936216;29;20516;-87
2022/08/15 08:12:12;;;;;;;;;;;25.40;51.00;;;;;;4923203;29;19927;-88
2022/08/15 08:15:08;;;;;;;;;;;25.60;49.80;;;;;;4916682;29;20346;-85
2022/08/15 08:17:41;;;;;;;;;;;25.70;49.80;;;;;;4941482;29;19927;-89
2022/08/15 08:20:16;;;;;;;;;;;25.80;49.60;;;;;;4937466;29;19939;-85
2022/08/15 08:23:02;;;;;;;;;;;25.90;49.30;;;;;;4938598;29;19977;-85
2022/08/15 08:25:35;;;;;;;;;;;25.90;49.60;;;;;;4916012;29;20409;-89
2022/08/15 08:28:30;;;;;;;;;;;26.10;49.30;;;;;;4918834;29;19954;-89
2022/08/15 08:31:02;;;;;;;;;;;26.30;49.10;;;;;;4935986;29;20014;-86
2022/08/15 08:33:50;;;;;;;;;;;26.40;48.70;;;;;;4919361;29;19935;-88
2022/08/15 08:36:28;;;;;;;;;;;26.50;48.40;;;;;;4918732;29;20010;-88
2022/08/15 08:39:10;;;;;;;;;;;26.80;48.70;;;;;;4932391;29;20384;-91
2022/08/15 08:41:58;;;;;;;;;;;26.80;48.00;;;;;;4914393;29;19935;-91
2022/08/15 08:44:34;;;;;;;;;;;26.90;48.10;;;;;;4919187;29;19982;-88
2022/08/15 08:47:03;;;;;;;;;;;27.00;47.90;;;;;;4921200;29;19931;-91
2022/08/15 08:49:53;;;;;;;;;;;27.00;47.60;;;;;;4918248;29;19927;-92
2022/08/15 08:52:45;;;;;;;;;;;27.10;47.00;;;;;;4906090;29;20029;-92
2022/08/15 08:55:34;;;;;;;;;;;27.10;47.00;;;;;;4919843;29;20038;-86
2022/08/15 08:58:15;;;;;;;;;;;27.20;46.40;;;;;;4920711;29;19943;-88
2022/08/15 09:01:05;;;;;;;;;;;27.20;45.80;;;;;;4937308;29;20355;-89
2022/08/15 09:03:46;;;;;;;;;;;27.30;46.60;;;;;;4912798;29;19927;-92
2022/08/15 09:06:21;;;;;;;;;;;27.30;46.40;;;;;;4924391;29;20307;-87
2022/08/15 09:09:06;;;;;;;;;;;27.50;46.60;;;;;;4925983;29;19962;-89
2022/08/15 09:11:54;;;;;;;;;;;27.50;46.10;;;;;;4906960;29;19933;-89
2022/08/15 09:14:41;;;;;;;;;;;27.70;45.70;;;;;;4918075;29;20054;-88
2022/08/15 09:17:28;;;;;;;;;;;27.70;46.40;;;;;;4925856;29;19927;-88
2022/08/15 09:20:11;;;;;;;;;;;27.80;45.90;;;;;;4918117;29;20383;-87
2022/08/15 09:22:47;;;;;;;;;;;27.90;45.80;;;;;;4937159;29;19934;-88
2022/08/15 09:25:15;;;;;;;;;;;28.00;45.90;;;;;;4939521;29;20021;-86
2022/08/15 09:27:41;;;;;;;;;;;28.20;46.00;;;;;;4915579;29;19934;-85
2022/08/15 09:30:23;;;;;;;;;;;28.40;45.50;;;;;;4933616;29;19963;-87
2022/08/15 09:33:33;;;;;;;;;;;28.50;44.40;;;;;;4923073;29;20362;-84
2022/08/15 09:36:17;;;;;;;;;;;28.60;44.30;;;;;;4923208;29;19955;-84
2022/08/15 09:39:02;;;;;;;;;;;28.70;43.80;;;;;;4923931;29;20840;-84
2022/08/15 09:41:37;;;;;;;;;;;28.80;44.70;;;;;;4915632;29;19974;-90
2022/08/15 09:44:04;;;;;;;;;;;29.00;44.50;;;;;;4922331;29;19949;-88
2022/08/15 09:47:00;;;;;;;;;;;29.10;42.30;;;;;;4929907;29;19927;-86
2022/08/15 09:50:09;;;;;;;;;;;29.30;43.20;;;;;;4923067;29;20347;-84
2022/08/15 09:53:02;;;;;;;;;;;29.50;41.80;;;;;;4929898;29;20297;-88
2022/08/15 09:55:38;;;;;;;;;;;29.60;41.60;;;;;;4944637;29;19930;-85
2022/08/15 09:58:13;;;;;;;;;;;29.50;41.20;;;;;;4909071;29;19931;-85
2022/08/15 10:00:55;;;;;;;;;;;29.60;40.80;;;;;;4935655;29;19927;-84
2022/08/15 10:03:25;;;;;;;;;;;29.70;40.80;;;;;;4919063;29;20268;-88
2022/08/15 10:06:02;;;;;;;;;;;29.60;40.90;;;;;;4921601;29;20334;-86
2022/08/15 10:08:51;;;;;;;;;;;29.80;41.30;;;;;;4925083;29;19934;-85
2022/08/15 10:11:27;;;;;;;;;;;30.10;41.20;;;;;;4922850;29;19953;-84
2022/08/15 10:14:05;;;;;;;;;;;30.10;39.90;;;;;;4902563;29;19974;-89
2022/08/15 10:16:39;;;;;;;;;;;30.10;40.10;;;;;;4919570;29;19932;-87
2022/08/15 10:19:25;;;;;;;;;;;30.20;40.40;;;;;;4923497;29;19927;-89
2022/08/15 10:22:03;;;;;;;;;;;30.30;40.20;;;;;;4938178;29;19926;-85
2022/08/15 10:24:32;;;;;;;;;;;30.50;40.30;;;;;;4925012;29;19931;-85
2022/08/15 10:27:07;;;;;;;;;;;30.50;39.60;;;;;;4912012;29;20303;-87
2022/08/15 10:29:37;;;;;;;;;;;30.60;40.40;;;;;;4934510;29;19930;-88
2022/08/15 10:32:20;;;;;;;;;;;30.70;39.40;;;;;;4918760;29;19928;-86
2022/08/15 10:35:15;;;;;;;;;;;30.70;39.80;;;;;;4927851;29;19926;-86
2022/08/15 10:37:53;;;;;;;;;;;31.00;40.30;;;;;;4932614;29;19930;-89
2022/08/15 10:40:43;;;;;;;;;;;31.00;39.20;;;;;;4918375;29;19990;-88
2022/08/15 10:43:11;;;;;;;;;;;31.10;39.80;;;;;;4916466;29;19970;-87
2022/08/15 10:45:43;;;;;;;;;;;31.30;38.90;;;;;;4916912;29;20351;-84
2022/08/15 10:48:21;;;;;;;;;;;31.50;38.80;;;;;;4928099;29;19970;-89
2022/08/15 10:51:08;;;;;;;;;;;31.60;38.30;;;;;;4918744;29;20455;-90
2022/08/15 10:53:57;;;;;;;;;;;31.80;38.90;;;;;;4921270;29;19927;-88
2022/08/15 10:56:25;;;;;;;;;;;31.80;37.20;;;;;;4937837;29;20379;-83
2022/08/15 10:59:15;;;;;;;;;;;31.90;37.20;;;;;;4925823;29;19930;-84
2022/08/15 11:01:44;;;;;;;;;;;32.00;37.00;;;;;;4915250;29;19931;-86
2022/08/15 11:04:30;;;;;;;;;;;31.80;36.90;;;;;;4920560;29;19930;-84
2022/08/15 11:07:16;;;;;;;;;;;31.80;37.30;;;;;;4932557;29;20013;-79
2022/08/15 11:09:52;;;;;;;;;;;31.70;36.40;;;;;;4921486;29;19927;-83
2022/08/15 11:12:20;;;;;;;;;;;31.60;37.30;;;;;;4938909;29;19927;-79
2022/08/15 11:14:55;;;;;;;;;;;31.40;37.10;;;;;;4921435;29;19938;-84
2022/08/15 11:17:23;;;;;;;;;;;31.10;37.30;;;;;;4918811;29;19959;-82
2022/08/15 11:20:16;;;;;;;;;;;30.90;37.60;;;;;;4915441;29;19973;-83
2022/08/15 11:22:58;;;;;;;;;;;30.70;38.00;;;;;;4914541;29;19931;-85
2022/08/15 11:25:33;;;;;;;;;;;30.70;38.70;;;;;;4907015;29;19930;-85
2022/08/15 11:28:20;;;;;;;;;;;30.80;38.20;;;;;;4917590;29;20410;-85
2022/08/15 11:31:15;;;;;;;;;;;30.90;38.30;;;;;;4928896;29;19927;-83
2022/08/15 11:33:47;;;;;;;;;;;30.90;38.00;;;;;;4912738;29;19937;-81
2022/08/15 11:36:19;;;;;;;;;;;30.90;37.90;;;;;;4919629;29;19999;-84
2022/08/15 11:38:50;;;;;;;;;;;30.80;37.60;;;;;;4934945;29;20009;-86
2022/08/15 11:41:38;;;;;;;;;;;30.70;37.50;;;;;;4929530;29;20021;-83
2022/08/15 11:44:21;;;;;;;;;;;30.60;37.50;;;;;;4930175;29;19934;-79
2022/08/15 11:46:49;;;;;;;;;;;30.50;38.00;;;;;;4922613;29;20438;-87
2022/08/15 11:49:33;;;;;;;;;;;30.20;37.10;;;;;;4911114;29;19938;-84
2022/08/15 11:52:05;;;;;;;;;;;30.20;38.00;;;;;;4921542;29;19931;-83
2022/08/15 11:55:09;;;;;;;;;;;30.30;38.40;;;;;;4936167;29;20014;-81
2022/08/15 11:57:46;;;;;;;;;;;30.60;38.90;;;;;;4916848;29;19983;-80
2022/08/15 12:00:36;;;;;;;;;;;30.70;38.70;;;;;;4926255;29;19930;-80
2022/08/15 12:03:23;;;;;;;;;;;30.70;38.10;;;;;;4911037;29;19974;-83
2022/08/15 12:06:12;;;;;;;;;;;30.30;37.80;;;;;;4923305;29;19969;-79
2022/08/15 12:09:10;;;;;;;;;;;30.30;38.90;;;;;;4907742;29;20009;-83
2022/08/15 12:11:41;;;;;;;;;;;30.30;39.70;;;;;;4919199;29;20367;-85
2022/08/15 12:14:25;;;;;;;;;;;30.50;39.60;;;;;;4913252;29;19931;-84
2022/08/15 12:17:04;;;;;;;;;;;30.70;38.70;;;;;;4908732;29;19931;-82
2022/08/15 12:19:37;;;;;;;;;;;30.90;39.00;;;;;;4934928;29;20017;-81
2022/08/15 12:22:31;;;;;;;;;;;31.30;38.40;;;;;;4913852;29;19962;-82
2022/08/15 12:25:18;;;;;;;;;;;31.20;37.40;;;;;;4909743;29;20022;-83
2022/08/15 12:28:05;;;;;;;;;;;31.10;36.80;;;;;;4928372;29;20021;-85
2022/08/15 12:31:04;;;;;;;;;;;31.00;36.90;;;;;;4921091;29;20021;-85
2022/08/15 12:33:41;;;;;;;;;;;30.90;37.90;;;;;;4918594;29;19935;-83
2022/08/15 12:36:19;;;;;;;;;;;30.80;37.90;;;;;;4907287;29;19934;-82
2022/08/15 12:39:06;;;;;;;;;;;30.50;38.90;;;;;;4923058;29;19970;-83
2022/08/15 12:41:36;;;;;;;;;;;30.50;39.50;;;;;;4910541;29;19970;-86
2022/08/15 12:44:25;;;;;;;;;;;30.50;39.60;;;;;;4930081;29;19962;-80
2022/08/15 12:46:55;;;;;;;;;;;30.60;39.20;;;;;;4913083;29;19934;-84
2022/08/15 12:49:23;;;;;;;;;;;30.60;38.60;;;;;;4917494;29;19935;-83
2022/08/15 12:51:49;;;;;;;;;;;30.50;38.80;;;;;;4920106;29;19931;-84
2022/08/15 12:54:17;;;;;;;;;;;30.40;38.80;;;;;;4921480;29;20017;-84
2022/08/15 12:56:53;;;;;;;;;;;30.30;39.20;;;;;;4921969;29;20371;-81
2022/08/15 12:59:38;;;;;;;;;;;30.40;38.90;;;;;;4939458;29;19941;-84
2022/08/15 13:02:09;;;;;;;;;;;30.40;38.80;;;;;;4924373;29;19926;-86
2022/08/15 13:04:37;;;;;;;;;;;30.50;39.20;;;;;;4920776;29;19927;-84
2022/08/15 13:07:24;;;;;;;;;;;30.50;39.30;;;;;;4933725;29;19930;-87
2022/08/15 13:09:57;;;;;;;;;;;30.60;39.10;;;;;;4936221;29;19931;-85
2022/08/15 13:12:25;;;;;;;;;;;30.70;38.30;;;;;;4920514;29;19962;-85
2022/08/15 13:14:52;;;;;;;;;;;30.70;38.30;;;;;;4938415;29;19926;-84
2022/08/15 13:17:19;;;;;;;;;;;30.70;38.00;;;;;;4938781;29;19927;-84
2022/08/15 13:25:39;;;;;;;;;;;30.80;38.80;;;;;;4937409;29;19927;-87
2022/08/15 13:28:13;;;;;;;;;;;30.90;37.90;;;;;;4922141;29;20405;-84
2022/08/15 13:30:40;;;;;;;;;;;30.90;38.60;;;;;;4904913;29;19927;-79
2022/08/15 13:33:27;;;;;;;;;;;31.10;38.50;;;;;;4912122;29;20018;-86
2022/08/15 13:35:55;;;;;;;;;;;31.20;37.90;;;;;;4915065;29;19926;-82
2022/08/15 13:38:29;;;;;;;;;;;31.40;37.60;;;;;;4919976;29;19935;-83
2022/08/15 13:40:57;;;;;;;;;;;31.60;37.20;;;;;;4915389;29;19978;-83
2022/08/15 13:43:30;;;;;;;;;;;31.60;35.90;;;;;;4912349;29;19927;-86
2022/08/15 13:46:25;;;;;;;;;;;31.40;35.80;;;;;;4937300;29;19993;-82
2022/08/15 13:48:58;;;;;;;;;;;31.50;37.30;;;;;;4920849;29;20017;-84
2022/08/15 13:51:30;;;;;;;;;;;31.50;36.30;;;;;;4914848;29;19978;-83
2022/08/15 13:54:18;;;;;;;;;;;31.70;36.00;;;;;;4910965;29;19994;-85
2022/08/15 13:57:05;;;;;;;;;;;31.70;35.80;;;;;;4925603;29;19962;-85
2022/08/15 13:59:37;;;;;;;;;;;31.90;36.20;;;;;;4915850;29;19931;-82
2022/08/15 14:02:04;;;;;;;;;;;32.20;34.90;;;;;;4919644;29;19931;-78
2022/08/15 14:04:51;;;;;;;;;;;32.30;34.70;;;;;;4926170;29;19967;-79
2022/08/15 14:07:24;;;;;;;;;;;32.30;34.40;;;;;;4936999;29;20013;-82
2022/08/15 14:09:51;;;;;;;;;;;32.30;34.70;;;;;;4923857;29;20009;-84
2022/08/15 14:12:40;;;;;;;;;;;32.40;34.80;;;;;;4919482;29;20009;-79
2022/08/15 14:15:09;;;;;;;;;;;32.40;34.70;;;;;;4907866;29;19935;-84
2022/08/15 14:17:37;;;;;;;;;;;32.40;35.30;;;;;;4919810;29;19990;-81
2022/08/15 14:20:09;;;;;;;;;;;32.20;34.70;;;;;;4937664;29;19926;-77
2022/08/15 14:22:54;;;;;;;;;;;32.20;35.70;;;;;;4922189;29;19934;-80
2022/08/15 14:25:27;;;;;;;;;;;32.30;35.00;;;;;;4918808;29;20304;-79
2022/08/15 14:28:14;;;;;;;;;;;32.40;35.60;;;;;;4934588;29;20017;-82
2022/08/15 14:31:01;;;;;;;;;;;32.40;34.60;;;;;;4929693;29;19957;-78
2022/08/15 14:33:45;;;;;;;;;;;32.50;34.60;;;;;;4933636;29;20302;-82
2022/08/15 14:36:32;;;;;;;;;;;32.60;35.10;;;;;;4916091;29;20443;-78
2022/08/15 14:38:59;;;;;;;;;;;32.60;35.40;;;;;;4920423;29;19927;-77
2022/08/15 14:41:27;;;;;;;;;;;32.60;35.30;;;;;;4919479;29;19939;-85
2022/08/15 14:43:58;;;;;;;;;;;32.60;35.10;;;;;;4914867;29;20410;-84
2022/08/15 14:46:26;;;;;;;;;;;32.40;34.60;;;;;;4936845;29;20398;-81
2022/08/15 14:49:02;;;;;;;;;;;32.20;34.70;;;;;;4928907;29;19927;-78
2022/08/15 14:51:35;;;;;;;;;;;31.90;35.10;;;;;;4928501;29;19930;-78
2022/08/15 14:54:21;;;;;;;;;;;31.70;35.50;;;;;;4915465;29;19931;-77
2022/08/15 14:57:08;;;;;;;;;;;31.50;36.30;;;;;;4938153;29;20417;-77
2022/08/15 14:59:36;;;;;;;;;;;31.20;36.30;;;;;;4913418;29;19970;-79
2022/08/15 15:02:24;;;;;;;;;;;30.90;36.80;;;;;;4919621;29;19998;-84
2022/08/15 15:04:55;;;;;;;;;;;30.70;37.80;;;;;;4917597;29;19931;-78
2022/08/15 15:07:28;;;;;;;;;;;30.60;38.00;;;;;;4937423;29;19930;-81
2022/08/15 15:10:15;;;;;;;;;;;30.60;38.70;;;;;;4922685;29;20038;-81
2022/08/15 15:12:52;;;;;;;;;;;30.60;38.20;;;;;;4940912;29;19931;-81
2022/08/15 15:15:19;;;;;;;;;;;30.70;38.20;;;;;;4934666;29;19926;-83
2022/08/15 15:17:46;;;;;;;;;;;30.70;38.00;;;;;;4921404;29;20383;-81
2022/08/15 15:20:16;;;;;;;;;;;30.80;38.50;;;;;;4934956;29;20007;-83
2022/08/15 15:22:47;;;;;;;;;;;30.80;37.30;;;;;;4931291;29;20004;-84